createdAt,value
2022-10-26T00:00:56.567Z,17.36
2022-10-26T00:03:27.184Z,17.35
2022-10-26T00:05:54.034Z,17.38
2022-10-26T00:08:25.330Z,17.36
2022-10-26T00:10:52.062Z,17.37
2022-10-26T00:13:18.804Z,17.38
2022-10-26T00:15:45.710Z,17.40
2022-10-26T00:18:12.544Z,17.39
2022-10-26T00:20:39.337Z,17.39
2022-10-26T00:23:06.091Z,17.38
2022-10-26T00:25:32.868Z,17.39
2022-10-26T00:27:59.775Z,17.40
2022-10-26T00:30:26.933Z,17.44
2022-10-26T00:32:53.855Z,17.48
2022-10-26T00:35:23.262Z,17.49
2022-10-26T00:37:55.787Z,17.47
2022-10-26T00:40:28.602Z,17.47
2022-10-26T00:42:55.242Z,17.48
2022-10-26T00:45:29.049Z,17.48
2022-10-26T00:48:11.539Z,17.50
2022-10-26T00:50:43.951Z,17.51
2022-10-26T00:53:12.036Z,17.55
2022-10-26T00:55:40.132Z,17.57
2022-10-26T00:58:09.061Z,17.59
2022-10-26T01:00:35.691Z,17.62
2022-10-26T01:03:09.266Z,17.61
2022-10-26T01:05:37.826Z,17.65
2022-10-26T01:08:04.566Z,17.65
2022-10-26T01:10:31.203Z,17.66
2022-10-26T01:12:59.030Z,17.66
2022-10-26T01:15:31.517Z,17.67
2022-10-26T01:18:00.963Z,17.68
2022-10-26T01:20:45.350Z,17.68
2022-10-26T01:23:11.912Z,17.69
2022-10-26T01:25:53.523Z,17.72
2022-10-26T01:28:52.254Z,17.71
2022-10-26T01:31:23.388Z,17.71
2022-10-26T01:33:59.332Z,17.71
2022-10-26T01:39:25.155Z,17.72
2022-10-26T01:41:55.247Z,17.71
2022-10-26T01:44:25.647Z,17.71
2022-10-26T01:46:54.363Z,17.70
2022-10-26T01:49:23.301Z,17.71
2022-10-26T01:51:50.747Z,17.70
2022-10-26T01:54:17.723Z,17.68
2022-10-26T01:56:52.279Z,17.71
2022-10-26T01:59:31.266Z,17.74
2022-10-26T02:02:14.438Z,17.77
2022-10-26T02:04:59.179Z,17.77
2022-10-26T02:07:40.331Z,17.76
2022-10-26T02:10:19.039Z,17.76
2022-10-26T02:12:49.674Z,17.75
2022-10-26T02:15:25.190Z,17.75
2022-10-26T02:17:59.259Z,17.76
2022-10-26T02:20:28.700Z,17.75
2022-10-26T02:22:56.349Z,17.75
2022-10-26T02:25:30.912Z,17.75
2022-10-26T02:28:03.120Z,17.75
2022-10-26T02:30:29.741Z,17.74
2022-10-26T02:32:58.212Z,17.76
2022-10-26T02:35:30.236Z,17.78
2022-10-26T02:37:58.844Z,17.79
2022-10-26T02:40:26.696Z,17.78
2022-10-26T02:42:54.277Z,17.78
2022-10-26T02:45:30.909Z,17.77
2022-10-26T02:47:58.043Z,17.80
2022-10-26T02:50:30.091Z,17.81
2022-10-26T02:52:59.745Z,17.81
2022-10-26T02:55:33.393Z,17.80
2022-10-26T02:58:02.634Z,17.78
2022-10-26T03:00:30.005Z,17.77
2022-10-26T03:02:58.281Z,17.73
2022-10-26T03:05:26.235Z,17.75
2022-10-26T03:07:53.322Z,17.74
2022-10-26T03:10:20.644Z,17.75
2022-10-26T03:12:47.442Z,17.74
2022-10-26T03:15:14.286Z,17.71
2022-10-26T03:17:40.954Z,17.71
2022-10-26T03:20:07.960Z,17.73
2022-10-26T03:22:34.591Z,17.73
2022-10-26T03:25:01.263Z,17.73
2022-10-26T03:27:27.879Z,17.71
2022-10-26T03:29:54.472Z,17.67
2022-10-26T03:32:21.191Z,17.66
2022-10-26T03:34:47.794Z,17.68
2022-10-26T03:37:14.356Z,17.68
2022-10-26T03:39:41.029Z,17.67
2022-10-26T03:42:07.619Z,17.65
2022-10-26T03:44:34.335Z,17.65
2022-10-26T03:47:00.992Z,17.63
2022-10-26T03:49:27.569Z,17.63
2022-10-26T03:51:54.161Z,17.65
2022-10-26T03:54:20.753Z,17.67
2022-10-26T03:56:51.254Z,17.67
2022-10-26T03:59:20.859Z,17.67
2022-10-26T04:01:47.505Z,17.65
2022-10-26T04:04:14.142Z,17.66
2022-10-26T04:06:40.860Z,17.67
2022-10-26T04:09:08.399Z,17.72
2022-10-26T04:11:43.064Z,17.73
2022-10-26T04:14:09.765Z,17.74
2022-10-26T04:16:36.382Z,17.75
2022-10-26T04:19:03.022Z,17.77
2022-10-26T04:21:33.080Z,17.78
2022-10-26T04:23:59.708Z,17.80
2022-10-26T04:26:26.296Z,17.82
2022-10-26T04:28:56.774Z,17.83
2022-10-26T04:31:31.191Z,17.83
2022-10-26T04:33:57.926Z,17.83
2022-10-26T04:36:24.545Z,17.82
2022-10-26T04:38:51.296Z,17.84
2022-10-26T04:41:17.901Z,17.89
2022-10-26T04:43:44.679Z,17.93
2022-10-26T04:46:16.715Z,17.93
2022-10-26T04:48:43.687Z,17.93
2022-10-26T04:51:10.379Z,17.91
2022-10-26T04:53:36.955Z,17.92
2022-10-26T04:56:03.705Z,17.93
2022-10-26T04:58:30.632Z,17.96
2022-10-26T05:00:57.319Z,17.98
2022-10-26T05:03:23.986Z,17.99
2022-10-26T05:05:50.622Z,17.98
2022-10-26T05:08:17.310Z,17.98
2022-10-26T05:10:47.829Z,17.99
2022-10-26T05:13:14.479Z,18.00
2022-10-26T05:15:41.173Z,17.99
2022-10-26T05:18:09.200Z,18.01
2022-10-26T05:20:36.601Z,17.99
2022-10-26T05:23:07.143Z,17.98
2022-10-26T05:25:35.546Z,17.98
2022-10-26T05:28:03.002Z,17.97
2022-10-26T05:30:30.211Z,18.00
2022-10-26T05:32:57.351Z,18.01
2022-10-26T05:35:24.135Z,17.99
2022-10-26T05:37:50.725Z,17.99
2022-10-26T05:40:17.860Z,17.98
2022-10-26T05:42:44.868Z,17.96
2022-10-26T05:45:12.063Z,17.94
2022-10-26T05:47:42.533Z,17.96
2022-10-26T05:50:09.507Z,17.95
2022-10-26T05:52:40.673Z,17.93
2022-10-26T05:55:08.438Z,17.92
2022-10-26T05:57:36.077Z,17.90
2022-10-26T06:00:04.065Z,17.88
2022-10-26T06:02:35.395Z,17.87
2022-10-26T06:05:05.859Z,17.86
2022-10-26T06:07:33.541Z,17.86
2022-10-26T06:10:00.253Z,17.84
2022-10-26T06:12:27.121Z,17.87
2022-10-26T06:14:54.040Z,17.85
2022-10-26T06:17:35.690Z,17.85
2022-10-26T06:23:36.261Z,17.83
2022-10-26T06:26:10.152Z,17.80
2022-10-26T06:28:55.286Z,17.80
2022-10-26T06:31:22.260Z,17.79
2022-10-26T06:33:48.968Z,17.81
2022-10-26T06:36:15.658Z,17.81
2022-10-26T06:38:44.876Z,17.83
2022-10-26T06:41:19.517Z,17.82
2022-10-26T06:43:46.330Z,17.80
2022-10-26T06:46:44.761Z,17.81
2022-10-26T06:49:11.343Z,17.79
2022-10-26T06:51:44.734Z,17.82
2022-10-26T06:54:26.078Z,17.84
2022-10-26T06:56:53.514Z,17.93
2022-10-26T06:59:31.926Z,17.97
2022-10-26T07:02:01.694Z,17.98
2022-10-26T07:04:31.051Z,17.95
2022-10-26T07:06:57.806Z,17.93
2022-10-26T07:09:24.499Z,17.92
2022-10-26T07:11:51.145Z,17.91
2022-10-26T07:14:17.897Z,17.90
2022-10-26T07:16:44.550Z,17.90
2022-10-26T07:19:11.161Z,17.90
2022-10-26T07:21:38.078Z,17.90
2022-10-26T07:24:04.792Z,17.91
2022-10-26T07:26:31.382Z,17.90
2022-10-26T07:28:58.086Z,17.90
2022-10-26T07:31:32.195Z,17.93
2022-10-26T07:33:58.832Z,17.95
2022-10-26T07:36:25.470Z,17.93
2022-10-26T07:38:53.320Z,17.93
2022-10-26T07:41:28.036Z,17.96
2022-10-26T07:43:54.604Z,17.97
2022-10-26T07:46:21.331Z,17.99
2022-10-26T07:48:47.905Z,17.99
2022-10-26T07:51:14.922Z,18.01
2022-10-26T07:53:41.655Z,18.02
2022-10-26T07:56:08.490Z,18.05
2022-10-26T07:58:35.223Z,18.08
2022-10-26T08:01:09.098Z,18.10
2022-10-26T08:03:35.830Z,18.10
2022-10-26T08:06:04.310Z,18.12
2022-10-26T08:08:31.691Z,18.15
2022-10-26T08:10:58.631Z,18.15
2022-10-26T08:13:25.539Z,18.16
2022-10-26T08:15:59.142Z,18.16
2022-10-26T08:18:25.806Z,18.20
2022-10-26T08:20:52.614Z,18.25
2022-10-26T08:23:19.450Z,18.29
2022-10-26T08:25:46.093Z,18.32
2022-10-26T08:28:12.726Z,18.34
2022-10-26T08:30:39.459Z,18.36
2022-10-26T08:33:07.448Z,18.38
2022-10-26T08:35:34.701Z,18.39
2022-10-26T08:38:01.434Z,18.42
2022-10-26T08:40:32.791Z,18.41
2022-10-26T08:43:05.635Z,18.42
2022-10-26T08:45:44.381Z,18.44
2022-10-26T08:48:24.586Z,18.49
2022-10-26T08:50:51.183Z,18.53
2022-10-26T08:53:29.728Z,18.55
2022-10-26T08:55:58.249Z,18.57
2022-10-26T08:58:28.918Z,18.59
2022-10-26T09:00:55.674Z,18.59
2022-10-26T09:03:22.334Z,18.60
2022-10-26T09:05:52.099Z,18.60
2022-10-26T09:08:31.607Z,18.63
2022-10-26T09:11:16.816Z,18.65
2022-10-26T09:13:49.168Z,18.66
2022-10-26T09:16:16.455Z,18.68
2022-10-26T09:18:49.161Z,18.70
2022-10-26T09:21:34.338Z,18.73
2022-10-26T09:24:22.144Z,18.75
2022-10-26T09:26:56.079Z,18.78
2022-10-26T09:29:28.169Z,18.80
2022-10-26T09:31:56.086Z,18.84
2022-10-26T09:34:27.323Z,18.86
2022-10-26T09:36:55.545Z,18.89
2022-10-26T09:39:38.783Z,18.90
2022-10-26T09:42:25.651Z,18.91
2022-10-26T09:44:55.563Z,18.91
2022-10-26T09:47:39.022Z,18.93
2022-10-26T09:50:05.804Z,18.93
2022-10-26T09:52:32.389Z,18.93
2022-10-26T09:54:59.175Z,18.94
2022-10-26T09:57:26.312Z,18.96
2022-10-26T09:59:55.843Z,18.96
2022-10-26T10:02:45.177Z,18.98
2022-10-26T10:05:56.886Z,18.99
2022-10-26T10:08:24.618Z,19.06
2022-10-26T10:10:59.546Z,19.07
2022-10-26T10:13:30.883Z,19.08
2022-10-26T10:16:25.857Z,19.10
2022-10-26T10:18:56.499Z,19.08
2022-10-26T10:21:38.187Z,19.08
2022-10-26T10:24:22.371Z,19.06
2022-10-26T10:27:12.357Z,19.09
2022-10-26T10:29:50.096Z,19.10
2022-10-26T10:32:17.713Z,19.06
2022-10-26T10:34:44.549Z,19.06
2022-10-26T10:37:24.193Z,19.08
2022-10-26T10:39:59.715Z,19.10
2022-10-26T10:42:31.766Z,19.13
2022-10-26T10:44:58.831Z,19.16
2022-10-26T10:47:32.669Z,19.19
2022-10-26T10:50:04.200Z,19.23
2022-10-26T10:52:35.585Z,19.25
2022-10-26T10:55:15.388Z,19.26
2022-10-26T10:57:44.790Z,19.30
2022-10-26T11:00:12.671Z,19.34
2022-10-26T11:02:39.405Z,19.35
2022-10-26T11:05:23.419Z,19.37
2022-10-26T11:07:55.928Z,19.42
2022-10-26T11:10:24.956Z,19.46
2022-10-26T11:12:56.998Z,19.50
2022-10-26T11:15:28.361Z,19.55
2022-10-26T11:17:54.931Z,19.57
2022-10-26T11:20:23.235Z,19.58
2022-10-26T11:22:53.250Z,19.62
2022-10-26T11:25:25.388Z,19.66
2022-10-26T11:27:54.764Z,19.71
2022-10-26T11:30:22.351Z,19.77
2022-10-26T11:32:52.120Z,19.82
2022-10-26T11:35:21.945Z,19.88
2022-10-26T11:38:04.099Z,19.95
2022-10-26T11:40:30.703Z,19.98
2022-10-26T11:43:26.400Z,20.00
2022-10-26T11:46:08.388Z,19.99
2022-10-26T11:48:43.483Z,20.01
2022-10-26T11:51:19.027Z,20.04
2022-10-26T11:53:46.970Z,20.06
2022-10-26T11:56:16.626Z,20.11
2022-10-26T11:58:44.597Z,20.10
2022-10-26T12:01:14.177Z,20.10
2022-10-26T12:03:46.705Z,20.08
2022-10-26T12:06:19.333Z,20.07
2022-10-26T12:08:48.092Z,20.08
2022-10-26T12:11:42.005Z,20.08
2022-10-26T12:14:08.554Z,20.07
2022-10-26T12:16:47.134Z,20.06
2022-10-26T12:19:20.289Z,20.06
2022-10-26T12:21:53.920Z,20.06
2022-10-26T12:24:26.134Z,20.06
2022-10-26T12:26:54.055Z,20.07
2022-10-26T12:29:23.399Z,20.12
2022-10-26T12:31:50.964Z,20.16
2022-10-26T12:34:24.977Z,20.15
2022-10-26T12:36:57.656Z,20.13
2022-10-26T12:39:29.625Z,20.07
2022-10-26T12:41:58.232Z,20.04
2022-10-26T12:44:38.059Z,19.97
2022-10-26T12:47:05.315Z,19.96
2022-10-26T12:49:50.409Z,19.95
2022-10-26T12:52:28.669Z,19.95
2022-10-26T12:55:04.075Z,19.98
2022-10-26T12:57:52.600Z,19.92
2022-10-26T13:00:23.536Z,19.93
2022-10-26T13:03:06.943Z,19.95
2022-10-26T13:05:45.755Z,19.93
2022-10-26T13:08:13.850Z,19.91
2022-10-26T13:10:49.192Z,19.93
2022-10-26T13:13:23.104Z,19.91
2022-10-26T13:15:54.146Z,19.87
2022-10-26T13:18:21.645Z,19.88
2022-10-26T13:21:00.816Z,19.90
2022-10-26T13:23:28.785Z,19.93
2022-10-26T13:26:02.514Z,19.93
2022-10-26T13:28:38.437Z,19.94
2022-10-26T13:31:11.874Z,19.98
2022-10-26T13:33:41.043Z,19.97
2022-10-26T13:36:28.015Z,19.97
2022-10-26T13:38:54.880Z,19.98
2022-10-26T13:41:37.305Z,19.99
2022-10-26T13:44:05.641Z,19.98
2022-10-26T13:46:36.209Z,19.95
2022-10-26T13:49:08.869Z,19.94
2022-10-26T13:51:39.724Z,19.94
2022-10-26T13:54:25.642Z,19.94
2022-10-26T13:56:55.120Z,19.98
2022-10-26T13:59:39.029Z,20.00
2022-10-26T14:02:35.123Z,19.98
2022-10-26T14:05:12.602Z,19.96
2022-10-26T14:07:58.638Z,19.97
2022-10-26T14:10:47.783Z,19.96
2022-10-26T14:13:16.155Z,19.96
2022-10-26T14:15:48.579Z,19.91
2022-10-26T14:18:19.079Z,19.88
2022-10-26T14:21:08.924Z,19.87
2022-10-26T14:23:36.719Z,19.84
2022-10-26T14:26:07.563Z,19.83
2022-10-26T14:28:42.307Z,19.81
2022-10-26T14:31:41.620Z,19.77
2022-10-26T14:34:23.640Z,19.75
2022-10-26T14:36:51.095Z,19.74
2022-10-26T14:39:41.310Z,19.75
2022-10-26T14:42:33.021Z,19.73
2022-10-26T14:45:01.149Z,19.74
2022-10-26T14:47:33.436Z,19.76
2022-10-26T14:52:58.783Z,19.75
2022-10-26T14:55:30.489Z,19.75
2022-10-26T14:58:17.504Z,19.76
2022-10-26T15:00:52.606Z,19.75
2022-10-26T15:03:24.692Z,19.80
2022-10-26T15:05:54.673Z,19.78
2022-10-26T15:08:52.661Z,19.74
2022-10-26T15:11:37.395Z,19.69
2022-10-26T15:14:15.415Z,19.66
2022-10-26T15:16:54.649Z,19.65
2022-10-26T15:19:25.668Z,19.63
2022-10-26T15:21:53.736Z,19.59
2022-10-26T15:24:22.426Z,19.54
2022-10-26T15:26:49.400Z,19.53
2022-10-26T15:29:34.755Z,19.53
2022-10-26T15:32:02.095Z,19.49
2022-10-26T15:34:31.431Z,19.46
2022-10-26T15:36:59.805Z,19.44
2022-10-26T15:39:31.648Z,19.40
2022-10-26T15:42:04.341Z,19.38
2022-10-26T15:44:33.383Z,19.37
2022-10-26T15:47:08.651Z,19.32
2022-10-26T15:49:38.897Z,19.30
2022-10-26T15:52:12.611Z,19.30
2022-10-26T15:54:42.213Z,19.28
2022-10-26T15:57:23.136Z,19.23
2022-10-26T15:59:56.278Z,19.21
2022-10-26T16:02:25.047Z,19.18
2022-10-26T16:04:53.101Z,19.15
2022-10-26T16:07:28.710Z,19.15
2022-10-26T16:09:55.918Z,19.12
2022-10-26T16:12:24.166Z,19.08
2022-10-26T16:15:04.931Z,19.07
2022-10-26T16:17:44.204Z,19.05
2022-10-26T16:20:20.974Z,19.09
2022-10-26T16:22:53.744Z,19.08
2022-10-26T16:25:25.438Z,19.05
2022-10-26T16:28:09.906Z,19.01
2022-10-26T16:30:47.477Z,18.98
2022-10-26T16:33:14.623Z,18.99
2022-10-26T16:35:41.328Z,18.97
2022-10-26T16:38:08.453Z,18.90
2022-10-26T16:40:35.963Z,18.86
2022-10-26T16:43:04.561Z,18.82
2022-10-26T16:45:32.638Z,18.80
2022-10-26T16:48:00.571Z,18.80
2022-10-26T16:50:28.727Z,18.79
2022-10-26T16:52:58.062Z,18.79
2022-10-26T16:55:25.717Z,18.78
2022-10-26T16:57:53.369Z,18.80
2022-10-26T17:00:21.958Z,18.80
2022-10-26T17:02:50.564Z,18.80
2022-10-26T17:05:19.492Z,18.82
2022-10-26T17:07:49.356Z,18.83
2022-10-26T17:10:18.465Z,18.82
2022-10-26T17:12:48.678Z,18.81
2022-10-26T17:15:19.718Z,18.77
2022-10-26T17:17:48.965Z,18.76
2022-10-26T17:20:17.735Z,18.77
2022-10-26T17:22:46.628Z,18.77
2022-10-26T17:25:13.985Z,18.75
2022-10-26T17:27:47.576Z,18.72
2022-10-26T17:30:17.541Z,18.72
2022-10-26T17:32:46.995Z,18.70
2022-10-26T17:35:17.750Z,18.73
2022-10-26T17:37:55.995Z,18.73
2022-10-26T17:40:39.131Z,18.70
2022-10-26T17:43:23.847Z,18.68
2022-10-26T17:46:09.555Z,18.68
2022-10-26T17:48:47.635Z,18.67
2022-10-26T17:51:16.635Z,18.66
2022-10-26T17:54:03.234Z,18.67
2022-10-26T17:56:49.224Z,18.65
2022-10-26T17:59:25.577Z,18.65
2022-10-26T18:01:57.043Z,18.65
2022-10-26T18:04:23.922Z,18.64
2022-10-26T18:06:54.566Z,18.65
2022-10-26T18:09:36.335Z,18.64
2022-10-26T18:12:16.283Z,18.65
2022-10-26T18:14:57.488Z,18.62
2022-10-26T18:17:24.780Z,18.60
2022-10-26T18:19:52.146Z,18.58
2022-10-26T18:22:19.440Z,18.58
2022-10-26T18:24:48.131Z,18.57
2022-10-26T18:27:15.665Z,18.55
2022-10-26T18:29:43.418Z,18.55
2022-10-26T18:32:10.299Z,18.54
2022-10-26T18:34:37.675Z,18.58
2022-10-26T18:37:04.966Z,18.58
2022-10-26T18:39:32.085Z,18.56
2022-10-26T18:41:58.733Z,18.54
2022-10-26T18:44:25.424Z,18.49
2022-10-26T18:46:54.715Z,18.48
2022-10-26T18:49:21.444Z,18.48
2022-10-26T18:51:48.708Z,18.49
2022-10-26T18:54:15.555Z,18.48
2022-10-26T18:56:42.716Z,18.48
2022-10-26T18:59:09.487Z,18.48
2022-10-26T19:01:39.571Z,18.46
2022-10-26T19:04:07.442Z,18.46
2022-10-26T19:06:34.051Z,18.48
2022-10-26T19:09:00.995Z,18.50
2022-10-26T19:11:28.243Z,18.50
2022-10-26T19:13:55.248Z,18.45
2022-10-26T19:16:43.949Z,18.44
2022-10-26T19:19:10.725Z,18.42
2022-10-26T19:21:41.456Z,18.38
2022-10-26T19:24:11.881Z,18.38
2022-10-26T19:26:42.402Z,18.39
2022-10-26T19:29:13.938Z,18.40
2022-10-26T19:31:40.797Z,18.41
2022-10-26T19:34:07.552Z,18.39
2022-10-26T19:36:34.486Z,18.39
2022-10-26T19:39:01.609Z,18.40
2022-10-26T19:41:32.361Z,18.42
2022-10-26T19:46:45.907Z,18.35
2022-10-26T19:49:17.860Z,18.34
2022-10-26T19:51:47.984Z,18.33
2022-10-26T19:54:19.363Z,18.31
2022-10-26T19:56:45.974Z,18.30
2022-10-26T19:59:13.014Z,18.29
2022-10-26T20:01:52.226Z,18.29
2022-10-26T20:04:19.038Z,18.31
2022-10-26T20:06:54.627Z,18.29
2022-10-26T20:09:21.255Z,18.25
2022-10-26T20:11:58.033Z,18.21
2022-10-26T20:14:38.940Z,18.21
2022-10-26T20:17:06.332Z,18.19
2022-10-26T20:19:33.310Z,18.19
2022-10-26T20:22:01.756Z,18.17
2022-10-26T20:24:28.399Z,18.14
2022-10-26T20:26:56.312Z,18.11
2022-10-26T20:29:23.044Z,18.08
2022-10-26T20:31:53.769Z,18.05
2022-10-26T20:34:22.573Z,18.05
2022-10-26T20:36:49.186Z,18.05
2022-10-26T20:39:16.039Z,18.05
2022-10-26T20:41:46.083Z,18.05
2022-10-26T20:44:22.414Z,18.05
2022-10-26T20:46:49.579Z,18.05
2022-10-26T20:49:16.383Z,18.02
2022-10-26T20:52:08.700Z,18.01
2022-10-26T20:54:41.619Z,17.99
2022-10-26T20:57:12.685Z,17.98
2022-10-26T20:59:48.129Z,17.95
2022-10-26T21:02:14.871Z,17.94
2022-10-26T21:04:41.495Z,17.89
2022-10-26T21:07:08.485Z,17.88
2022-10-26T21:09:36.689Z,17.85
2022-10-26T21:12:03.740Z,17.83
2022-10-26T21:14:30.598Z,17.82
2022-10-26T21:16:57.182Z,17.80
2022-10-26T21:19:24.009Z,17.80
2022-10-26T21:21:50.872Z,17.77
2022-10-26T21:24:17.798Z,17.77
2022-10-26T21:26:44.822Z,17.76
2022-10-26T21:29:11.641Z,17.77
2022-10-26T21:31:40.589Z,17.78
2022-10-26T21:34:07.327Z,17.78
2022-10-26T21:36:34.115Z,17.77
2022-10-26T21:39:00.982Z,17.77
2022-10-26T21:41:28.552Z,17.74
2022-10-26T21:44:03.511Z,17.75
2022-10-26T21:46:36.017Z,17.72
2022-10-26T21:49:03.360Z,17.69
2022-10-26T21:51:31.525Z,17.68
2022-10-26T21:53:58.793Z,17.68
2022-10-26T21:56:26.202Z,17.67
2022-10-26T21:58:53.329Z,17.65
2022-10-26T22:01:21.476Z,17.62
2022-10-26T22:03:49.315Z,17.59
2022-10-26T22:08:45.076Z,17.50
2022-10-26T22:11:15.598Z,17.49
2022-10-26T22:13:43.856Z,17.47
2022-10-26T22:16:11.890Z,17.47
2022-10-26T22:18:40.083Z,17.45
2022-10-26T22:21:07.490Z,17.43
2022-10-26T22:23:38.915Z,17.42
2022-10-26T22:26:24.275Z,17.43
2022-10-26T22:28:52.265Z,17.42
2022-10-26T22:31:20.195Z,17.40
2022-10-26T22:33:50.913Z,17.40
2022-10-26T22:36:17.474Z,17.43
2022-10-26T22:38:44.185Z,17.44
2022-10-26T22:41:11.061Z,17.45
2022-10-26T22:43:37.786Z,17.45
2022-10-26T22:46:10.249Z,17.44
2022-10-26T22:48:37.283Z,17.44
2022-10-26T22:51:11.973Z,17.44
2022-10-26T22:53:38.784Z,17.44
2022-10-26T22:56:06.619Z,17.42
2022-10-26T22:58:34.013Z,17.41
2022-10-26T23:01:03.836Z,17.39
2022-10-26T23:03:30.533Z,17.38
2022-10-26T23:05:58.126Z,17.38
2022-10-26T23:08:24.884Z,17.36
2022-10-26T23:10:51.514Z,17.36
2022-10-26T23:13:18.192Z,17.34
2022-10-26T23:15:44.992Z,17.35
2022-10-26T23:18:11.599Z,17.35
2022-10-26T23:20:38.313Z,17.35
2022-10-26T23:23:04.992Z,17.36
2022-10-26T23:25:31.680Z,17.36
2022-10-26T23:27:58.511Z,17.36
2022-10-26T23:30:25.243Z,17.36
2022-10-26T23:32:52.080Z,17.35
2022-10-26T23:35:19.185Z,17.36
2022-10-26T23:37:45.840Z,17.35
2022-10-26T23:40:12.746Z,17.39
2022-10-26T23:42:39.339Z,17.38
2022-10-26T23:45:06.051Z,17.38
2022-10-26T23:47:32.657Z,17.38
2022-10-26T23:49:59.331Z,17.38
2022-10-26T23:52:26.133Z,17.37
2022-10-26T23:54:52.758Z,17.37
2022-10-26T23:57:27.459Z,17.39
